Time;durP1;ratioP1;P1;durP2;ratioP2;P2;SDS_P1;SDS_P2;PMS_P1;PMS_P2;Temp;Humidity;BMP_temperature;BMP_pressure;BME280_temperature;BME280_humidity;BME280_pressure;Samples;Min_cycle;Max_cycle;Signal;HPM_P1;HPM_P2
2022/12/22 03:26:22;;;;;;;0.03;0.03;;;;;;;7.43;93.47;95038.84;4342970;32;20304;-64
2022/12/22 03:28:47;;;;;;;0.10;0.10;;;;;;;7.35;93.99;95040.22;4335536;32;20281;-64
2022/12/22 03:31:13;;;;;;;0.13;0.13;;;;;;;7.43;93.90;95036.19;4345680;32;20235;-64
2022/12/22 03:33:38;;;;;;;0.10;0.03;;;;;;;7.49;93.79;95025.28;4344609;32;20181;-63
2022/12/22 03:36:05;;;;;;;0.23;0.23;;;;;;;7.57;93.96;95023.87;4330845;32;20212;-64
2022/12/22 03:38:30;;;;;;;0.37;0.37;;;;;;;7.59;94.08;95014.63;4348176;32;20197;-64
2022/12/22 03:40:56;;;;;;;0.03;0.03;;;;;;;7.69;93.97;95020.88;4338642;32;20324;-64
2022/12/22 03:46:31;;;;;;;0.43;0.43;;;;;;;7.61;94.52;95016.19;4334256;32;20227;-63
2022/12/22 03:49:10;;;;;;;0.17;0.17;;;;;;;7.57;95.11;95015.97;4323804;32;20303;-65
2022/12/22 03:51:53;;;;;;;0.00;0.00;;;;;;;7.54;95.50;95012.03;4344418;32;20277;-64
2022/12/22 03:54:23;;;;;;;0.20;0.20;;;;;;;7.51;95.98;95015.22;4341465;32;20357;-64
2022/12/22 03:56:50;;;;;;;0.10;0.10;;;;;;;7.48;96.28;95018.44;4340362;32;20335;-64
2022/12/22 03:59:16;;;;;;;1.70;0.30;;;;;;;7.58;96.41;95020.19;4343547;32;20270;-64
2022/12/22 04:01:44;;;;;;;0.13;0.13;;;;;;;7.61;96.54;95016.19;4338566;32;20287;-64
2022/12/22 04:04:11;;;;;;;0.20;0.20;;;;;;;7.61;96.78;95011.72;4344591;32;20286;-63
2022/12/22 04:06:37;;;;;;;0.40;0.40;;;;;;;7.64;97.33;95013.00;4331030;32;20285;-63
2022/12/22 04:09:03;;;;;;;0.20;0.20;;;;;;;7.64;97.55;95013.78;4336426;32;20282;-63
2022/12/22 04:14:12;;;;;;;0.13;0.13;;;;;;;7.63;98.03;95014.06;4338593;32;20361;-64
2022/12/22 04:16:37;;;;;;;0.10;0.10;;;;;;;7.77;97.86;95009.66;4333768;32;20282;-64
2022/12/22 04:19:03;;;;;;;0.10;0.10;;;;;;;7.77;97.92;94996.47;4339176;32;20197;-64
2022/12/22 04:21:28;;;;;;;0.10;0.10;;;;;;;7.73;98.37;95001.50;4338677;32;20190;-64
2022/12/22 04:23:54;;;;;;;0.67;0.40;;;;;;;7.68;98.50;95000.81;4354574;32;20177;-64
2022/12/22 04:26:22;;;;;;;0.20;0.20;;;;;;;7.72;97.91;94996.50;4336188;32;20254;-64
2022/12/22 04:28:48;;;;;;;0.30;0.30;;;;;;;7.62;98.58;94986.88;4345257;32;20189;-63
2022/12/22 04:31:13;;;;;;;0.20;0.20;;;;;;;7.64;99.04;94986.59;4345889;32;20343;-64
2022/12/22 04:33:39;;;;;;;0.93;0.27;;;;;;;7.62;98.92;94986.09;4339496;32;20277;-64
2022/12/22 04:36:05;;;;;;;0.10;0.10;;;;;;;7.57;99.45;94984.28;4357180;32;20201;-64
2022/12/22 04:38:30;;;;;;;0.20;0.20;;;;;;;7.55;99.99;94987.22;4339785;32;20193;-63
2022/12/22 04:40:55;;;;;;;0.10;0.10;;;;;;;7.48;99.95;94989.41;4346285;32;20223;-63
2022/12/22 04:43:21;;;;;;;0.40;0.40;;;;;;;7.68;99.55;94988.41;4343557;32;20227;-63
2022/12/22 04:45:46;;;;;;;0.33;0.33;;;;;;;7.62;100.00;94996.66;4339364;32;20279;-63
2022/12/22 04:48:11;;;;;;;0.40;0.40;;;;;;;7.71;99.73;94989.66;4343426;32;20201;-63
2022/12/22 04:50:38;;;;;;;0.27;0.27;;;;;;;7.86;98.74;94986.84;4346337;32;20236;-63
2022/12/22 04:53:03;;;;;;;0.10;0.10;;;;;;;7.89;98.59;94994.22;4344867;32;20197;-63
2022/12/22 04:55:29;;;;;;;0.17;0.17;;;;;;;7.78;98.66;94985.63;4338790;32;20281;-63
2022/12/22 04:57:54;;;;;;;0.00;0.00;;;;;;;7.74;98.83;94983.81;4346786;32;20185;-63
2022/12/22 05:00:19;;;;;;;0.10;0.10;;;;;;;7.67;99.44;94978.13;4323011;32;20181;-63
2022/12/22 05:02:45;;;;;;;0.67;0.17;;;;;;;7.59;99.79;94972.38;4348655;32;20194;-63
2022/12/22 05:05:10;;;;;;;0.00;0.00;;;;;;;7.61;99.98;94973.97;4338462;32;20245;-63
2022/12/22 05:07:35;;;;;;;0.23;0.23;;;;;;;7.69;99.68;94970.72;4340420;32;20173;-62
2022/12/22 05:10:02;;;;;;;0.20;0.20;;;;;;;7.68;99.83;94980.47;4327782;32;20201;-63
2022/12/22 05:15:11;;;;;;;0.10;0.10;;;;;;;7.70;99.77;94977.53;4340882;32;20298;-63
2022/12/22 05:17:36;;;;;;;0.07;0.07;;;;;;;7.65;100.00;94974.97;4345809;32;20281;-63
2022/12/22 05:20:02;;;;;;;0.23;0.23;;;;;;;7.67;100.00;94980.75;4328579;32;20193;-63
2022/12/22 05:22:27;;;;;;;0.07;0.07;;;;;;;7.75;99.77;94977.47;4333381;32;20255;-64
2022/12/22 05:24:53;;;;;;;0.13;0.13;;;;;;;7.74;99.55;94975.91;4344224;32;20194;-64
2022/12/22 05:27:18;;;;;;;0.10;0.10;;;;;;;7.76;99.46;94971.91;4336651;32;20212;-64
2022/12/22 05:29:43;;;;;;;0.20;0.20;;;;;;;7.79;99.36;94975.84;4346032;32;20196;-64
2022/12/22 05:32:09;;;;;;;0.20;0.20;;;;;;;7.75;99.50;94969.56;4329223;32;20228;-64
2022/12/22 05:34:34;;;;;;;0.67;0.50;;;;;;;7.78;99.84;94958.44;4322111;32;20181;-64
2022/12/22 05:36:59;;;;;;;3.80;0.67;;;;;;;7.75;99.85;94953.72;4330072;32;20224;-64
2022/12/22 05:39:25;;;;;;;0.20;0.20;;;;;;;7.79;99.80;94946.81;4336958;32;20189;-64
2022/12/22 05:41:50;;;;;;;0.00;0.00;;;;;;;7.83;99.47;94951.25;4350019;32;20189;-64
2022/12/22 05:44:15;;;;;;;0.00;0.00;;;;;;;7.73;99.58;94966.41;4339416;32;20184;-64
2022/12/22 05:46:41;;;;;;;0.30;0.30;;;;;;;7.67;99.78;94957.78;4342541;32;20190;-63
2022/12/22 05:49:06;;;;;;;0.17;0.17;;;;;;;7.64;99.88;94950.44;4348213;32;20243;-64
2022/12/22 05:51:31;;;;;;;0.00;0.00;;;;;;;7.57;99.82;94950.78;4339631;32;20204;-63
2022/12/22 05:53:57;;;;;;;0.00;0.00;;;;;;;7.52;100.00;94947.41;4339614;32;20189;-65
2022/12/22 05:56:22;;;;;;;0.00;0.00;;;;;;;7.51;100.00;94943.97;4344835;32;20182;-63
2022/12/22 05:58:48;;;;;;;1.13;0.67;;;;;;;7.62;99.78;94944.66;4341322;32;20182;-63
2022/12/22 06:01:13;;;;;;;0.10;0.10;;;;;;;7.50;99.96;94939.75;4352036;32;20207;-63
2022/12/22 06:03:38;;;;;;;0.17;0.17;;;;;;;7.52;99.86;94944.75;4351289;32;20212;-63
2022/12/22 06:06:04;;;;;;;0.50;0.50;;;;;;;7.58;99.64;94949.69;4339121;32;20227;-63
2022/12/22 06:08:29;;;;;;;0.20;0.20;;;;;;;7.53;99.70;94941.84;4332488;32;20190;-64
2022/12/22 06:10:57;;;;;;;0.10;0.10;;;;;;;7.50;99.73;94952.97;4342490;32;20186;-63
2022/12/22 06:13:23;;;;;;;0.00;0.00;;;;;;;7.57;99.10;94942.06;4341421;32;20259;-63
2022/12/22 06:15:49;;;;;;;0.30;0.30;;;;;;;7.59;98.83;94948.63;4344961;32;20300;-63
2022/12/22 06:18:14;;;;;;;0.07;0.07;;;;;;;7.54;98.46;94950.53;4350005;32;20368;-63
2022/12/22 06:20:40;;;;;;;0.20;0.20;;;;;;;7.53;98.09;94947.13;4329240;32;20260;-63
2022/12/22 06:23:06;;;;;;;0.00;0.00;;;;;;;7.50;98.15;94942.41;4342327;32;20208;-63
2022/12/22 06:25:31;;;;;;;0.00;0.00;;;;;;;7.56;98.37;94946.56;4341495;32;20184;-63
2022/12/22 06:27:57;;;;;;;0.23;0.20;;;;;;;7.59;97.81;94948.63;4344664;32;20336;-63
2022/12/22 06:30:22;;;;;;;1.03;0.57;;;;;;;7.65;97.79;94945.94;4337908;32;20293;-64
2022/12/22 06:32:51;;;;;;;1.47;0.20;;;;;;;7.61;97.56;94944.94;4221979;32;20368;-64
2022/12/22 06:35:21;;;;;;;0.00;0.00;;;;;;;7.60;97.74;94938.88;4113546;32;20311;-64
2022/12/22 06:37:47;;;;;;;0.07;0.07;;;;;;;7.66;97.41;94943.03;4219908;32;20287;-64
2022/12/22 06:40:12;;;;;;;0.00;0.00;;;;;;;7.65;97.00;94941.44;4333347;32;20400;-64
2022/12/22 06:45:21;;;;;;;0.00;0.00;;;;;;;7.63;96.82;94953.34;4341402;32;20205;-64
2022/12/22 06:47:46;;;;;;;0.40;0.40;;;;;;;7.58;97.13;94962.13;4341637;32;20375;-64
2022/12/22 06:50:12;;;;;;;0.80;0.77;;;;;;;7.57;96.86;94963.97;4343452;32;20197;-63
2022/12/22 06:52:38;;;;;;;0.87;0.87;;;;;;;7.70;96.36;94965.13;4326985;32;20275;-64
2022/12/22 06:55:04;;;;;;;0.43;0.43;;;;;;;7.55;96.61;94976.66;4341149;32;20223;-64
2022/12/22 06:57:29;;;;;;;0.30;0.30;;;;;;;7.61;96.59;94971.31;4334778;32;20286;-64
2022/12/22 06:59:54;;;;;;;0.30;0.30;;;;;;;7.69;96.04;94970.72;4338815;32;20228;-64
2022/12/22 07:02:20;;;;;;;1.30;0.50;;;;;;;7.58;95.81;94970.03;4335991;32;20205;-64
2022/12/22 07:04:45;;;;;;;0.40;0.40;;;;;;;7.66;95.78;94971.28;4352819;32;20234;-63
2022/12/22 07:07:10;;;;;;;0.20;0.20;;;;;;;7.57;95.62;94969.25;4359347;32;20211;-64
2022/12/22 07:09:36;;;;;;;0.00;0.00;;;;;;;7.76;94.48;94965.84;4340736;32;20204;-64
2022/12/22 07:12:01;;;;;;;0.50;0.20;;;;;;;7.79;94.31;94962.66;4335492;32;20224;-64
2022/12/22 07:14:27;;;;;;;0.00;0.00;;;;;;;7.78;94.06;94963.72;4341959;32;20189;-64
2022/12/22 07:16:52;;;;;;;0.10;0.10;;;;;;;7.90;93.46;94961.44;4353909;32;20231;-64
2022/12/22 07:19:17;;;;;;;0.20;0.20;;;;;;;7.99;93.14;94946.53;4341640;32;20261;-64
2022/12/22 07:21:43;;;;;;;0.03;0.03;;;;;;;8.09;92.72;94950.88;4350053;32;20177;-64
2022/12/22 07:24:08;;;;;;;0.10;0.10;;;;;;;8.23;91.60;94947.22;4341679;32;20288;-64
2022/12/22 07:26:33;;;;;;;0.00;0.00;;;;;;;8.19;92.13;94942.81;4341836;32;20190;-64
2022/12/22 07:28:59;;;;;;;0.10;0.10;;;;;;;8.35;91.20;94928.31;4351223;32;20185;-64
2022/12/22 07:31:24;;;;;;;0.40;0.40;;;;;;;8.42;90.75;94927.94;4337906;32;20185;-64
2022/12/22 07:33:50;;;;;;;0.93;0.23;;;;;;;8.45;90.48;94935.31;4338496;32;20182;-63
2022/12/22 07:36:18;;;;;;;1.03;0.67;;;;;;;8.41;90.39;94939.59;4336125;32;20204;-52
2022/12/22 07:38:46;;;;;;;1.43;0.70;;;;;;;10.00;99.70;94931.81;4343297;32;20220;-53
2022/12/22 07:43:58;;;;;;;0.30;0.30;;;;;;;11.36;93.10;94937.53;4343747;32;20207;-51
2022/12/22 07:46:25;;;;;;;0.60;0.30;;;;;;;11.79;84.94;94948.31;4321921;32;20190;-53
2022/12/22 07:51:39;;;;;;;0.27;0.27;;;;;;;11.49;76.90;94941.94;4300251;32;20260;-62
2022/12/22 07:54:06;;;;;;;0.10;0.10;;;;;;;10.95;77.92;94941.25;4297273;32;20201;-62
2022/12/22 07:56:32;;;;;;;0.53;0.47;;;;;;;10.58;79.61;94946.97;4312923;32;20203;-63
2022/12/22 07:58:57;;;;;;;0.53;0.53;;;;;;;10.22;81.22;94939.81;4332614;33;20202;-62
2022/12/22 08:01:22;;;;;;;0.07;0.07;;;;;;;9.89;83.07;94941.84;4332475;32;20185;-62
2022/12/22 08:03:48;;;;;;;0.13;0.13;;;;;;;9.56;84.65;94953.69;4349050;32;20255;-62
2022/12/22 08:06:14;;;;;;;0.33;0.30;;;;;;;9.50;85.32;94957.50;4326623;32;20261;-62
2022/12/22 08:08:39;;;;;;;0.43;0.27;;;;;;;9.28;85.75;94956.31;4337386;32;20187;-62
2022/12/22 08:11:05;;;;;;;1.60;0.43;;;;;;;9.03;86.99;94959.44;4333654;32;20248;-62
2022/12/22 08:13:30;;;;;;;0.10;0.10;;;;;;;9.06;86.52;94950.13;4336714;32;20299;-62
2022/12/22 08:16:03;;;;;;;0.00;0.00;;;;;;;9.11;85.77;94947.41;4347976;32;20185;-62
2022/12/22 08:18:29;;;;;;;0.03;0.03;;;;;;;9.10;85.15;94967.78;4335461;32;20239;-63
2022/12/22 08:20:55;;;;;;;0.30;0.23;;;;;;;9.00;85.52;94957.38;4349511;32;20193;-62
2022/12/22 08:23:20;;;;;;;0.10;0.10;;;;;;;9.07;84.82;94963.06;4330267;32;20195;-61
2022/12/22 08:25:50;;;;;;;0.10;0.10;;;;;;;9.08;84.24;94959.34;4336710;32;20211;-62
2022/12/22 08:28:16;;;;;;;0.10;0.10;;;;;;;9.14;83.73;94958.19;4331831;32;20190;-62
2022/12/22 08:30:43;;;;;;;0.00;0.00;;;;;;;9.12;84.17;94956.91;4343497;32;20296;-62
2022/12/22 08:33:08;;;;;;;0.43;0.40;;;;;;;9.18;83.69;94963.66;4343215;32;20286;-62
2022/12/22 08:35:34;;;;;;;0.10;0.10;;;;;;;9.16;83.43;94956.00;4350115;32;20209;-62
2022/12/22 08:37:59;;;;;;;0.17;0.17;;;;;;;9.26;83.32;94957.69;4342688;32;20260;-62
2022/12/22 08:40:30;;;;;;;0.10;0.10;;;;;;;9.31;82.57;94960.25;4349066;32;20207;-61
2022/12/22 08:43:01;;;;;;;0.77;0.53;;;;;;;9.39;81.86;94964.06;4345301;32;20197;-61
2022/12/22 08:45:27;;;;;;;0.93;0.20;;;;;;;9.61;81.48;94957.00;4339443;32;20237;-62
2022/12/22 08:47:52;;;;;;;0.13;0.13;;;;;;;9.71;79.93;94949.94;4332828;32;20219;-62
2022/12/22 08:50:17;;;;;;;0.53;0.30;;;;;;;9.90;79.69;94961.19;4343389;32;20247;-62
2022/12/22 08:52:43;;;;;;;0.07;0.07;;;;;;;9.91;77.91;94952.94;4344317;32;20204;-62
2022/12/22 08:55:09;;;;;;;0.20;0.20;;;;;;;9.89;79.01;94975.50;4340614;32;20248;-62
2022/12/22 08:57:34;;;;;;;0.07;0.07;;;;;;;9.97;77.41;94965.00;4327700;32;20239;-62
2022/12/22 09:00:00;;;;;;;0.20;0.20;;;;;;;9.95;77.02;94956.56;4344670;32;20193;-62
2022/12/22 09:02:26;;;;;;;0.30;0.30;;;;;;;10.17;77.67;94950.53;4339788;32;20194;-59
2022/12/22 09:04:51;;;;;;;0.30;0.30;;;;;;;10.24;77.16;94952.78;4327088;32;20212;-58
2022/12/22 09:07:17;;;;;;;0.03;0.03;;;;;;;10.35;75.55;94953.34;4342281;32;20205;-63
2022/12/22 09:09:43;;;;;;;0.60;0.60;;;;;;;10.52;75.08;94941.00;4330847;32;20260;-61
2022/12/22 09:12:08;;;;;;;0.73;0.73;;;;;;;10.61;74.15;94941.03;4323966;32;20233;-61
2022/12/22 09:14:34;;;;;;;0.87;0.20;;;;;;;10.48;75.36;94937.38;4327305;32;20194;-61
2022/12/22 09:16:59;;;;;;;0.33;0.33;;;;;;;10.51;76.53;94957.19;4331958;32;20201;-62
2022/12/22 09:19:24;;;;;;;0.57;0.57;;;;;;;10.49;77.87;94956.72;4333543;32;20193;-60
2022/12/22 09:21:50;;;;;;;0.60;0.60;;;;;;;10.55;74.97;94951.00;4342812;32;20193;-62
2022/12/22 09:24:15;;;;;;;0.13;0.13;;;;;;;10.65;74.98;94957.91;4346527;32;20194;-63
2022/12/22 09:26:41;;;;;;;0.27;0.27;;;;;;;10.58;74.14;94962.87;4344541;32;20224;-64
2022/12/22 09:29:07;;;;;;;0.57;0.40;;;;;;;10.59;75.25;94956.50;4332829;32;20289;-66
2022/12/22 09:31:32;;;;;;;0.00;0.00;;;;;;;10.53;75.13;94955.03;4342305;32;20205;-60
2022/12/22 09:33:58;;;;;;;2.57;0.60;;;;;;;10.74;74.12;94945.50;4336541;32;20411;-60
2022/12/22 09:36:28;;;;;;;0.90;0.63;;;;;;;10.70;74.27;94947.19;4336686;32;20288;-60
2022/12/22 09:38:53;;;;;;;0.17;0.17;;;;;;;10.83;74.98;94945.53;4347304;32;20212;-62
2022/12/22 09:41:32;;;;;;;1.13;0.57;;;;;;;10.99;73.09;94952.81;4339324;32;20336;-63
2022/12/22 09:44:03;;;;;;;0.27;0.27;;;;;;;11.00;74.21;94943.78;4345760;32;20215;-64
2022/12/22 09:46:35;;;;;;;0.40;0.27;;;;;;;11.01;74.85;94955.19;4341664;32;20193;-62
2022/12/22 09:49:01;;;;;;;0.10;0.10;;;;;;;11.05;73.88;94960.63;4338585;32;20227;-61
2022/12/22 09:51:28;;;;;;;0.43;0.30;;;;;;;11.18;73.65;94957.13;4335751;32;20257;-62
2022/12/22 09:53:57;;;;;;;0.00;0.00;;;;;;;11.01;74.47;94949.88;4342794;32;20212;-62
2022/12/22 09:56:25;;;;;;;0.10;0.10;;;;;;;11.13;74.44;94941.31;4333487;32;20200;-60
2022/12/22 09:58:50;;;;;;;0.37;0.17;;;;;;;11.02;73.21;94938.94;4328506;32;20203;-61
2022/12/22 10:01:31;;;;;;;0.10;0.10;;;;;;;11.18;72.53;94939.34;4334900;32;20197;-64
2022/12/22 10:04:38;;;;;;;3.27;3.17;;;;;;;11.08;72.35;94922.88;4343469;32;20194;-62
2022/12/22 10:07:30;;;;;;;1.30;1.30;;;;;;;11.21;73.61;94922.00;4335174;32;20190;-65
2022/12/22 10:09:55;;;;;;;0.43;0.30;;;;;;;11.32;72.22;94910.00;4346871;32;20243;-64
2022/12/22 10:12:23;;;;;;;1.23;0.27;;;;;;;11.36;73.61;94906.44;4339772;32;20200;-61
2022/12/22 10:14:50;;;;;;;0.10;0.10;;;;;;;11.44;71.56;94894.25;4338264;32;20269;-59
2022/12/22 10:17:30;;;;;;;0.10;0.10;;;;;;;11.43;72.08;94902.56;4339985;32;20225;-62
2022/12/22 10:20:20;;;;;;;0.30;0.30;;;;;;;11.61;71.72;94904.16;4331921;32;20199;-61
2022/12/22 10:22:54;;;;;;;0.33;0.23;;;;;;;11.52;71.30;94912.09;4328135;32;20209;-64
2022/12/22 10:25:35;;;;;;;0.40;0.27;;;;;;;11.43;72.65;94918.50;4334373;32;20185;-63
2022/12/22 10:28:06;;;;;;;0.70;0.37;;;;;;;11.51;72.87;94913.19;4346188;32;20193;-64
2022/12/22 10:30:35;;;;;;;0.13;0.13;;;;;;;11.42;71.27;94916.94;4342569;32;20189;-63
2022/12/22 10:33:09;;;;;;;0.27;0.27;;;;;;;11.44;71.40;94902.22;4332834;32;20212;-62
2022/12/22 10:35:56;;;;;;;0.03;0.03;;;;;;;11.57;71.71;94892.59;4334852;32;20186;-60
2022/12/22 10:38:31;;;;;;;0.10;0.10;;;;;;;11.52;71.37;94890.06;4332477;32;20197;-62
2022/12/22 10:41:18;;;;;;;0.73;0.47;;;;;;;11.64;70.71;94887.56;4341999;32;20200;-62
2022/12/22 10:43:50;;;;;;;0.30;0.30;;;;;;;11.68;71.25;94873.38;4332139;32;20204;-62
2022/12/22 10:46:17;;;;;;;0.57;0.57;;;;;;;11.70;71.35;94895.09;4343225;32;20200;-59
2022/12/22 10:48:42;;;;;;;5.23;0.53;;;;;;;11.66;71.41;94880.09;4339071;32;20213;-61
2022/12/22 10:51:10;;;;;;;0.93;0.40;;;;;;;11.87;70.45;94880.28;4342932;32;20204;-60
2022/12/22 10:53:53;;;;;;;0.80;0.70;;;;;;;11.85;71.11;94893.87;4343703;32;20201;-63
2022/12/22 10:56:27;;;;;;;0.73;0.43;;;;;;;11.85;69.44;94896.53;4355092;32;20367;-62
2022/12/22 10:58:55;;;;;;;0.10;0.10;;;;;;;11.86;68.77;94886.69;4321401;32;20203;-63
2022/12/22 11:01:28;;;;;;;0.40;0.40;;;;;;;11.77;67.31;94891.25;4355422;32;20215;-63
2022/12/22 11:03:53;;;;;;;0.47;0.47;;;;;;;11.87;67.17;94897.03;4335793;32;20212;-60
2022/12/22 11:06:19;;;;;;;0.43;0.43;;;;;;;11.90;66.03;94900.94;4337324;32;20272;-61
2022/12/22 11:08:44;;;;;;;0.23;0.23;;;;;;;11.89;66.93;94896.72;4340703;32;20186;-62
2022/12/22 11:11:19;;;;;;;0.93;0.53;;;;;;;11.98;65.66;94897.50;4348841;32;20227;-62
2022/12/22 11:13:53;;;;;;;0.23;0.23;;;;;;;11.84;65.02;94897.66;4340763;32;20216;-61
2022/12/22 11:16:42;;;;;;;0.00;0.00;;;;;;;11.92;68.50;94909.37;4324195;33;20202;-63
2022/12/22 11:19:45;;;;;;;0.30;0.30;;;;;;;11.72;69.92;94916.03;4325351;32;20259;-63
2022/12/22 11:22:25;;;;;;;0.27;0.27;;;;;;;11.56;72.15;94909.63;4330624;32;20215;-58
2022/12/22 11:25:28;;;;;;;1.80;1.07;;;;;;;11.64;74.90;94914.94;4340425;32;20251;-62
2022/12/22 11:28:02;;;;;;;0.10;0.10;;;;;;;11.40;75.43;94897.84;4308850;33;20178;-60
2022/12/22 11:30:46;;;;;;;0.20;0.20;;;;;;;11.09;77.66;94903.19;4340864;32;20189;-58
2022/12/22 11:33:31;;;;;;;0.43;0.43;;;;;;;11.19;76.01;94900.28;4327769;32;20192;-59
2022/12/22 11:36:08;;;;;;;0.00;0.00;;;;;;;11.28;76.64;94885.16;4333987;32;20178;-61
2022/12/22 11:38:54;;;;;;;0.30;0.30;;;;;;;11.19;78.05;94909.03;4317939;32;20233;-60
2022/12/22 11:41:37;;;;;;;1.37;0.33;;;;;;;11.16;78.55;94904.34;4327681;32;20339;-64
2022/12/22 11:44:20;;;;;;;0.50;0.50;;;;;;;11.17;77.96;94921.84;4340043;32;20197;-61
2022/12/22 11:47:09;;;;;;;0.10;0.10;;;;;;;10.91;77.45;94891.72;4320095;32;20199;-63
2022/12/22 11:50:02;;;;;;;0.20;0.20;;;;;;;11.03;78.98;94890.06;4327925;33;20212;-61
2022/12/22 11:52:27;;;;;;;3.40;0.77;;;;;;;11.01;79.03;94886.16;4328810;33;20248;-61
2022/12/22 11:55:14;;;;;;;0.10;0.10;;;;;;;10.98;79.46;94886.78;4343127;32;20223;-61
2022/12/22 11:57:52;;;;;;;2.00;0.67;;;;;;;10.87;79.76;94875.62;4341600;32;20185;-61
2022/12/22 12:00:18;;;;;;;1.73;0.60;;;;;;;10.80;80.54;94861.25;4336976;32;20212;-60
2022/12/22 12:02:58;;;;;;;0.00;0.00;;;;;;;10.75;79.94;94856.87;4340988;32;20204;-60
2022/12/22 12:06:00;;;;;;;0.50;0.50;;;;;;;10.81;79.11;94855.63;4342618;32;20204;-61
2022/12/22 12:08:52;;;;;;;2.00;0.40;;;;;;;10.94;78.97;94846.78;4312511;32;20201;-61
2022/12/22 12:11:58;;;;;;;1.13;0.63;;;;;;;11.10;77.49;94838.41;4341686;32;20194;-61
2022/12/22 12:14:56;;;;;;;0.43;0.43;;;;;;;11.08;77.42;94845.88;4339783;32;20203;-61
2022/12/22 12:17:37;;;;;;;0.17;0.17;;;;;;;11.17;76.14;94842.19;4331406;32;20199;-61
2022/12/22 12:20:29;;;;;;;0.73;0.63;;;;;;;11.15;77.84;94844.38;4320244;32;20193;-61
2022/12/22 12:23:17;;;;;;;0.17;0.17;;;;;;;11.08;75.97;94833.41;4339586;32;20254;-61
2022/12/22 12:25:51;;;;;;;0.30;0.30;;;;;;;11.18;74.82;94832.34;4334087;32;20193;-61
2022/12/22 12:28:34;;;;;;;1.60;0.30;;;;;;;11.22;74.26;94838.63;4335344;32;20205;-61
2022/12/22 12:31:00;;;;;;;1.50;0.73;;;;;;;11.29;74.49;94839.72;4318287;32;20278;-63
2022/12/22 12:33:46;;;;;;;0.57;0.47;;;;;;;11.23;73.95;94829.53;4298730;32;20202;-63
2022/12/22 12:36:26;;;;;;;1.27;0.57;;;;;;;11.24;74.01;94839.84;4268574;32;20213;-64
2022/12/22 12:39:15;;;;;;;0.50;0.50;;;;;;;11.27;74.40;94830.47;4296233;32;20201;-62
2022/12/22 12:42:25;;;;;;;0.40;0.40;;;;;;;11.39;73.86;94829.91;4278649;32;20217;-62
2022/12/22 12:44:52;;;;;;;0.30;0.30;;;;;;;11.38;73.72;94842.41;4273108;32;20305;-61
2022/12/22 12:47:38;;;;;;;0.27;0.27;;;;;;;11.38;74.43;94842.41;4293735;33;20194;-64
2022/12/22 12:50:30;;;;;;;0.43;0.43;;;;;;;11.28;75.43;94838.12;4307695;32;20196;-62
2022/12/22 12:53:06;;;;;;;0.43;0.40;;;;;;;11.30;75.22;94840.50;4299193;32;20216;-63
2022/12/22 12:55:54;;;;;;;0.47;0.40;;;;;;;11.37;74.62;94854.09;4275793;33;20292;-61
2022/12/22 12:58:42;;;;;;;0.67;0.67;;;;;;;11.39;74.81;94843.19;4296570;32;20269;-63
2022/12/22 13:01:45;;;;;;;1.30;0.33;;;;;;;11.43;74.06;94831.59;4286237;33;20207;-62
2022/12/22 13:04:33;;;;;;;0.10;0.10;;;;;;;11.55;72.25;94847.72;4264723;33;20241;-63
2022/12/22 13:07:03;;;;;;;3.93;0.40;;;;;;;11.49;72.03;94843.66;4291717;33;20202;-60
2022/12/22 13:09:28;;;;;;;1.23;1.07;;;;;;;11.53;71.74;94841.16;4287371;32;20277;-62
2022/12/22 13:11:55;;;;;;;19.13;1.33;;;;;;;11.45;72.03;94841.91;4320510;33;20216;-62
2022/12/22 13:15:00;;;;;;;1.03;0.53;;;;;;;11.51;70.97;94849.44;4299447;32;20182;-61
2022/12/22 13:17:52;;;;;;;0.30;0.30;;;;;;;11.52;71.06;94848.34;4297147;33;20191;-61
2022/12/22 13:20:46;;;;;;;1.13;0.50;;;;;;;11.53;72.14;94849.13;4283456;33;20215;-65
2022/12/22 13:23:14;;;;;;;14.87;1.23;;;;;;;11.41;72.10;94855.06;4277240;33;20202;-63
2022/12/22 13:25:57;;;;;;;0.30;0.30;;;;;;;11.56;70.13;94857.25;4299587;32;20195;-63
2022/12/22 13:28:26;;;;;;;4.63;0.73;;;;;;;11.57;70.14;94860.69;4287985;33;20198;-62
2022/12/22 13:31:29;;;;;;;4.40;0.87;;;;;;;11.55;71.42;94861.00;4296317;33;20194;-61
2022/12/22 13:34:43;;;;;;;0.33;0.33;;;;;;;11.45;71.45;94868.47;4268022;33;20229;-62
2022/12/22 13:37:25;;;;;;;0.70;0.70;;;;;;;11.40;72.29;94858.03;4239329;33;20274;-62
2022/12/22 13:40:17;;;;;;;2.63;1.70;;;;;;;11.51;71.19;94862.72;4292622;33;20191;-61
2022/12/22 13:43:04;;;;;;;1.17;0.93;;;;;;;11.62;69.82;94874.62;4275026;33;20210;-62
2022/12/22 13:45:45;;;;;;;0.37;0.37;;;;;;;11.50;70.21;94860.38;4286177;33;20217;-62
2022/12/22 13:48:20;;;;;;;0.60;0.60;;;;;;;11.35;71.05;94867.69;4266915;33;20214;-65
2022/12/22 13:50:52;;;;;;;0.47;0.43;;;;;;;11.48;71.45;94868.66;4299307;32;20190;-61
2022/12/22 13:53:30;;;;;;;0.73;0.43;;;;;;;11.69;70.28;94869.63;4308905;32;20246;-61
2022/12/22 13:55:57;;;;;;;0.50;0.50;;;;;;;11.55;70.62;94860.22;4298559;32;20252;-61
2022/12/22 13:58:38;;;;;;;0.80;0.80;;;;;;;11.59;70.44;94859.31;4305805;32;20183;-59
2022/12/22 14:01:21;;;;;;;5.00;0.57;;;;;;;11.69;70.96;94853.69;4293350;32;20233;-61
2022/12/22 14:04:11;;;;;;;1.20;1.10;;;;;;;11.67;70.80;94853.19;4308606;33;20224;-60
2022/12/22 14:06:39;;;;;;;1.63;1.40;;;;;;;11.57;70.09;94863.37;4317866;32;20216;-60
2022/12/22 14:09:43;;;;;;;4.10;1.23;;;;;;;11.79;70.26;94857.16;4298910;32;20356;-60
2022/12/22 14:12:19;;;;;;;1.40;0.93;;;;;;;11.76;69.14;94855.09;4244977;33;20252;-61
2022/12/22 14:14:48;;;;;;;1.50;0.73;;;;;;;11.89;68.43;94867.47;4244186;33;20201;-60
2022/12/22 14:17:30;;;;;;;0.70;0.47;;;;;;;11.86;68.08;94868.88;4296039;33;20234;-60
2022/12/22 14:20:13;;;;;;;2.40;0.93;;;;;;;11.85;68.53;94877.16;4322763;32;20182;-60
2022/12/22 14:22:47;;;;;;;1.87;1.30;;;;;;;11.83;67.83;94887.34;4308566;33;20214;-60
2022/12/22 14:25:20;;;;;;;0.50;0.50;;;;;;;11.77;67.21;94859.34;4307318;32;20209;-60
2022/12/22 14:27:55;;;;;;;0.60;0.60;;;;;;;11.87;67.07;94867.00;4309728;32;20186;-59
2022/12/22 14:30:37;;;;;;;0.33;0.33;;;;;;;11.84;66.56;94876.41;4319028;33;20238;-60
2022/12/22 14:33:25;;;;;;;0.90;0.60;;;;;;;11.79;67.77;94887.19;4309716;33;20248;-59
2022/12/22 14:36:03;;;;;;;1.20;1.03;;;;;;;11.78;67.34;94900.78;4315871;33;20248;-60
2022/12/22 14:38:28;;;;;;;1.17;1.10;;;;;;;11.64;68.64;94883.03;4328241;32;20212;-59
2022/12/22 14:40:54;;;;;;;3.67;1.00;;;;;;;11.64;69.17;94890.22;4310651;33;20190;-60
2022/12/22 14:43:19;;;;;;;8.60;0.77;;;;;;;11.70;68.93;94902.28;4315484;33;20204;-59
2022/12/22 14:45:50;;;;;;;1.67;0.80;;;;;;;11.56;68.49;94898.97;4318255;32;20214;-60
2022/12/22 14:48:40;;;;;;;5.47;0.80;;;;;;;11.68;68.92;94899.16;4324870;32;20246;-60
2022/12/22 14:51:05;;;;;;;1.03;1.03;;;;;;;11.64;70.40;94891.00;4311850;33;20182;-59
2022/12/22 14:53:43;;;;;;;0.33;0.33;;;;;;;11.59;69.26;94909.78;4318275;32;20366;-59
2022/12/22 14:56:12;;;;;;;1.20;1.00;;;;;;;11.57;69.13;94909.31;4344764;32;20207;-59
2022/12/22 14:58:39;;;;;;;3.67;1.23;;;;;;;11.74;70.22;94902.44;4340264;32;20198;-45
2022/12/22 15:01:25;;;;;;;8.30;1.07;;;;;;;12.61;79.47;94914.69;4354963;32;20195;-58
2022/12/22 15:04:03;;;;;;;2.00;1.50;;;;;;;12.88;65.31;94926.84;4334486;32;20303;-58
2022/12/22 15:06:33;;;;;;;2.37;0.83;;;;;;;12.56;65.81;94914.84;4347984;32;20264;-59
2022/12/22 15:09:10;;;;;;;0.57;0.57;;;;;;;12.24;68.28;94911.59;4336030;32;20228;-59
2022/12/22 15:11:50;;;;;;;6.37;1.03;;;;;;;11.89;67.90;94916.09;4343587;32;20208;-58
2022/12/22 15:14:18;;;;;;;2.67;1.17;;;;;;;11.72;69.08;94921.38;4337910;32;20201;-57
2022/12/22 15:16:44;;;;;;;2.03;1.10;;;;;;;11.77;68.72;94933.75;4335547;32;20213;-58
2022/12/22 15:19:13;;;;;;;1.03;0.97;;;;;;;11.65;69.95;94937.75;4342481;32;20204;-57
2022/12/22 15:21:41;;;;;;;3.43;1.23;;;;;;;11.78;69.49;94940.63;4349678;32;20257;-55
2022/12/22 15:24:11;;;;;;;1.13;0.93;;;;;;;11.62;69.35;94946.38;4337732;32;20211;-57
2022/12/22 15:26:38;;;;;;;6.33;1.43;;;;;;;11.57;71.57;94945.72;4337292;32;20208;-58
2022/12/22 15:29:03;;;;;;;0.83;0.73;;;;;;;11.64;70.09;94940.72;4325546;32;20198;-58
2022/12/22 15:31:29;;;;;;;6.07;1.97;;;;;;;11.54;70.72;94947.09;4345100;32;20193;-56
2022/12/22 15:33:58;;;;;;;1.10;1.10;;;;;;;11.43;70.67;94945.06;4342872;32;20216;-58
2022/12/22 15:36:23;;;;;;;1.23;0.83;;;;;;;11.50;69.61;94954.13;4339470;32;20239;-59
2022/12/22 15:38:49;;;;;;;0.37;0.30;;;;;;;11.59;69.69;94954.94;4356225;32;20197;-59
2022/12/22 15:41:15;;;;;;;1.97;0.80;;;;;;;11.58;69.83;94958.69;4348533;32;20193;-56